Time;durP1;ratioP1;P1;durP2;ratioP2;P2;SDS_P1;SDS_P2;PMS_P1;PMS_P2;Temp;Humidity;BMP_temperature;BMP_pressure;BME280_temperature;BME280_humidity;BME280_pressure;Samples;Min_cycle;Max_cycle;Signal;HPM_P1;HPM_P2
2022/10/05 00:04:22;;;;;;;5.18;4.68;;;;;;;19.36;61.13;97540.75;10477067;28;20056;-61
2022/10/05 00:09:54;;;;;;;5.82;5.22;;;;;;;19.36;61.12;97529.97;10467412;28;20044;-61
2022/10/05 00:15:16;;;;;;;5.10;4.60;;;;;;;19.35;61.11;97539.19;10460541;28;20578;-61
2022/10/05 00:20:36;;;;;;;6.05;4.57;;;;;;;19.36;61.17;97518.34;10465503;28;20102;-61
2022/10/05 00:26:04;;;;;;;6.40;4.93;;;;;;;19.34;61.18;97501.66;10493087;28;20044;-62
2022/10/05 00:31:29;;;;;;;5.00;4.32;;;;;;;19.34;61.30;97494.34;10469407;28;20049;-62
2022/10/05 00:36:49;;;;;;;4.97;4.47;;;;;;;19.34;61.21;97496.25;10473975;28;20094;-62
2022/10/05 00:42:17;;;;;;;5.30;4.80;;;;;;;19.33;61.21;97497.38;10490870;28;20052;-61
2022/10/05 00:47:53;;;;;;;4.95;4.47;;;;;;;19.33;61.23;97486.56;10532113;28;20504;-61
2022/10/05 00:53:41;;;;;;;6.25;4.85;;;;;;;19.32;61.22;97490.34;10511049;28;20056;-57
2022/10/05 00:59:16;;;;;;;4.78;4.38;;;;;;;19.30;61.17;97479.84;10504971;28;20048;-61
2022/10/05 01:04:35;;;;;;;4.90;4.40;;;;;;;19.31;61.27;97470.66;10501553;28;20049;-51
2022/10/05 01:10:14;;;;;;;5.07;4.57;;;;;;;19.30;61.32;97460.16;10503294;28;20051;-52
2022/10/05 01:15:46;;;;;;;4.35;3.95;;;;;;;19.30;61.44;97455.53;10526350;28;20104;-52
2022/10/05 01:21:20;;;;;;;4.57;3.92;;;;;;;19.29;61.26;97458.56;10513785;28;20075;-52
2022/10/05 01:27:12;;;;;;;5.45;3.97;;;;;;;19.29;61.35;97455.88;10486105;28;20060;-51
2022/10/05 01:32:38;;;;;;;5.10;3.95;;;;;;;19.28;61.19;97454.25;10505718;28;20114;-52
2022/10/05 01:38:00;;;;;;;4.32;3.92;;;;;;;19.29;61.29;97451.25;10517353;28;20044;-52
2022/10/05 01:43:32;;;;;;;4.90;4.15;;;;;;;19.27;61.32;97456.16;10514418;28;20056;-51
2022/10/05 01:49:23;;;;;;;4.82;4.03;;;;;;;19.26;61.37;97454.56;10498422;28;20056;-52
2022/10/05 01:54:48;;;;;;;4.43;3.83;;;;;;;19.26;61.32;97448.34;10526233;28;20055;-52
2022/10/05 02:00:10;;;;;;;4.30;3.90;;;;;;;19.26;61.29;97457.25;10507676;28;20044;-52
2022/10/05 02:06:00;;;;;;;4.55;4.13;;;;;;;19.26;61.26;97459.16;10493385;28;20052;-53
2022/10/05 02:11:22;;;;;;;4.25;3.85;;;;;;;19.26;61.41;97456.47;10457074;28;20420;-52
2022/10/05 02:16:44;;;;;;;4.18;3.78;;;;;;;19.24;61.42;97450.56;10522270;28;20048;-52
2022/10/05 02:22:07;;;;;;;4.43;4.03;;;;;;;19.24;61.27;97461.38;10499568;28;20052;-51
2022/10/05 02:27:33;;;;;;;4.18;3.78;;;;;;;19.22;61.41;97472.47;10485668;28;20053;-52
2022/10/05 02:32:55;;;;;;;4.18;3.70;;;;;;;19.24;61.34;97472.19;10478163;28;20048;-52
2022/10/05 02:38:26;;;;;;;3.92;3.40;;;;;;;19.23;61.40;97470.56;10519480;28;20499;-52
2022/10/05 02:44:07;;;;;;;3.95;3.50;;;;;;;19.22;61.39;97464.38;10501032;28;20045;-52
2022/10/05 02:49:39;;;;;;;3.67;3.30;;;;;;;19.21;61.39;97472.78;10501709;28;20054;-52
2022/10/05 02:55:12;;;;;;;3.50;3.20;;;;;;;19.21;61.29;97456.56;10489902;28;20518;-52
2022/10/05 03:00:44;;;;;;;3.70;3.40;;;;;;;19.20;61.43;97455.78;10523023;28;20106;-52
2022/10/05 03:06:18;;;;;;;4.43;3.75;;;;;;;19.19;61.35;97456.91;10520288;28;20569;-52
2022/10/05 03:11:53;;;;;;;4.10;3.70;;;;;;;19.20;61.41;97449.59;10501529;28;20044;-52
2022/10/05 03:17:21;;;;;;;3.55;3.22;;;;;;;19.19;61.42;97443.41;10523521;28;20055;-51
2022/10/05 03:22:58;;;;;;;3.92;3.53;;;;;;;19.19;61.43;97445.28;10514066;28;20048;-51
2022/10/05 03:28:26;;;;;;;3.95;3.28;;;;;;;19.17;61.40;97432.88;10493127;28;20577;-51
2022/10/05 03:33:49;;;;;;;3.50;3.20;;;;;;;19.16;61.38;97422.38;10490043;28;20403;-52
2022/10/05 03:39:14;;;;;;;4.38;3.50;;;;;;;19.15;61.38;97427.00;10507427;28;20059;-51
2022/10/05 03:44:41;;;;;;;3.45;3.15;;;;;;;19.16;61.40;97438.59;10499083;28;20052;-53
2022/10/05 03:50:19;;;;;;;3.70;3.30;;;;;;;19.15;61.39;97421.59;10498093;28;20048;-52
2022/10/05 03:56:00;;;;;;;3.20;2.85;;;;;;;19.16;61.46;97406.19;10501012;28;20036;-52
2022/10/05 04:01:43;;;;;;;3.85;3.45;;;;;;;19.15;61.27;97409.97;10495174;28;20036;-52
2022/10/05 04:07:04;;;;;;;3.20;2.90;;;;;;;19.16;61.21;97417.78;10486226;28;20060;-52
2022/10/05 04:12:32;;;;;;;3.28;3.00;;;;;;;19.16;61.30;97425.88;10525517;28;20063;-52
2022/10/05 04:17:56;;;;;;;3.50;3.20;;;;;;;19.17;61.12;97432.09;10503631;28;20106;-52
2022/10/05 04:23:20;;;;;;;3.60;3.30;;;;;;;19.19;61.03;97438.00;10496328;28;20060;-52
2022/10/05 04:28:47;;;;;;;3.42;3.13;;;;;;;19.20;60.76;97441.47;10496985;28;20098;-51
2022/10/05 04:34:54;;;;;;;4.10;3.08;;;;;;;19.21;60.59;97441.19;10503174;28;20055;-52
2022/10/05 04:40:32;;;;;;;3.40;3.10;;;;;;;19.23;60.68;97438.16;10502754;28;20089;-53
2022/10/05 04:46:04;;;;;;;2.90;2.70;;;;;;;19.25;60.58;97439.47;10501406;28;20059;-51
2022/10/05 04:51:43;;;;;;;3.38;3.08;;;;;;;19.27;60.62;97448.06;10489183;28;20074;-53
2022/10/05 04:57:10;;;;;;;3.67;3.13;;;;;;;19.30;61.17;97438.53;10513778;28;20051;-52
2022/10/05 05:02:43;;;;;;;3.38;3.08;;;;;;;19.32;61.00;97430.91;10478418;28;20049;-52
2022/10/05 05:08:02;;;;;;;3.72;2.97;;;;;;;19.36;61.05;97429.19;10518596;28;20492;-51
2022/10/05 05:13:59;;;;;;;3.22;2.92;;;;;;;19.37;60.82;97433.50;10506506;28;20040;-52
2022/10/05 05:19:36;;;;;;;3.83;3.00;;;;;;;19.40;60.88;97440.19;10525046;28;20060;-50
2022/10/05 05:25:24;;;;;;;2.97;2.72;;;;;;;19.42;60.93;97432.56;10486635;28;20055;-54
2022/10/05 05:30:51;;;;;;;4.30;2.65;;;;;;;19.43;60.80;97429.56;10519105;28;20041;-53
2022/10/05 05:36:30;;;;;;;2.70;2.45;;;;;;;19.45;60.73;97424.66;10499922;28;20127;-53
2022/10/05 05:41:59;;;;;;;4.30;3.03;;;;;;;19.49;60.76;97435.66;10497706;28;20522;-54
2022/10/05 05:47:34;;;;;;;2.90;2.70;;;;;;;19.51;60.80;97433.44;10517295;28;20056;-54
2022/10/05 05:52:57;;;;;;;3.03;2.60;;;;;;;19.53;60.84;97429.31;10509213;28;20106;-53
2022/10/05 05:58:22;;;;;;;3.45;2.63;;;;;;;19.57;60.83;97432.22;10522092;28;20094;-53
2022/10/05 06:03:46;;;;;;;10.30;3.40;;;;;;;19.58;60.58;97433.00;10529762;28;20052;-52
2022/10/05 06:09:15;;;;;;;9.68;4.18;;;;;;;19.60;60.48;97430.78;10512661;28;20066;-53
2022/10/05 06:15:34;;;;;;;16.85;5.20;;;;;;;19.61;60.44;97432.41;10525172;28;20503;-52
2022/10/05 06:20:59;;;;;;;10.13;4.75;;;;;;;19.63;60.40;97430.19;10512306;28;20102;-53
2022/10/05 06:27:00;;;;;;;9.60;4.72;;;;;;;19.64;60.46;97434.47;10490109;28;20059;-53
2022/10/05 06:32:28;;;;;;;13.35;5.28;;;;;;;19.66;60.38;97443.06;10532628;28;20045;-52
2022/10/05 06:38:01;;;;;;;11.77;5.18;;;;;;;19.67;60.44;97431.16;10523751;28;20048;-52
2022/10/05 06:43:52;;;;;;;12.75;4.68;;;;;;;19.67;60.42;97441.97;10512521;28;20411;-53
2022/10/05 06:49:49;;;;;;;12.93;5.20;;;;;;;19.69;60.61;97448.66;10506406;28;21059;-52
2022/10/05 06:56:04;;;;;;;11.57;5.10;;;;;;;19.70;60.32;97455.66;10513051;28;20415;-52
2022/10/05 07:01:48;;;;;;;11.38;4.88;;;;;;;19.72;60.34;97455.41;10503696;28;20049;-53
2022/10/05 07:07:33;;;;;;;11.20;5.00;;;;;;;19.72;60.24;97467.00;10505031;28;20063;-52
2022/10/05 07:13:13;;;;;;;10.55;4.63;;;;;;;19.73;60.30;97465.09;10534533;28;20047;-52
2022/10/05 07:19:14;;;;;;;9.68;4.28;;;;;;;19.74;60.28;97474.81;10500826;28;20052;-53
2022/10/05 07:24:40;;;;;;;10.30;5.20;;;;;;;19.77;60.29;97476.09;10522407;28;20051;-53
2022/10/05 07:30:02;;;;;;;9.52;4.40;;;;;;;19.77;60.24;97474.16;10544477;28;20113;-53
2022/10/05 07:41:32;;;;;;;9.95;4.35;;;;;;;19.77;60.24;97487.69;10511094;28;20052;-52
2022/10/05 07:46:56;;;;;;;8.65;4.07;;;;;;;19.79;60.13;97488.19;10502191;28;20056;-52
2022/10/05 07:52:23;;;;;;;13.40;4.38;;;;;;;19.79;59.98;97481.97;10505584;28;20053;-53
2022/10/05 07:57:46;;;;;;;8.98;4.40;;;;;;;19.78;59.91;97475.78;10521531;28;20423;-52
2022/10/05 08:03:13;;;;;;;9.20;4.43;;;;;;;19.81;59.79;97472.44;10489956;28;20515;-51
2022/10/05 08:08:53;;;;;;;11.55;4.90;;;;;;;19.80;59.75;97468.16;10504826;28;20059;-52
2022/10/05 08:14:42;;;;;;;12.85;5.10;;;;;;;19.81;59.33;97475.16;10516242;28;20052;-53
2022/10/05 08:20:45;;;;;;;11.30;4.97;;;;;;;19.81;59.47;97461.63;10541785;28;20044;-53
2022/10/05 08:26:14;;;;;;;12.35;4.63;;;;;;;19.82;59.59;97452.41;10480928;28;20464;-52
2022/10/05 08:31:38;;;;;;;13.60;5.53;;;;;;;19.81;59.54;97444.63;10497226;28;20048;-52
2022/10/05 08:37:05;;;;;;;13.80;4.90;;;;;;;19.82;59.55;97438.13;10516539;28;20056;-53
2022/10/05 08:42:52;;;;;;;14.40;5.30;;;;;;;19.82;59.67;97443.53;10514665;28;20522;-52
2022/10/05 08:48:37;;;;;;;13.73;5.45;;;;;;;19.84;59.58;97444.81;10506764;28;20397;-52
2022/10/05 08:54:18;;;;;;;14.60;5.13;;;;;;;19.83;60.01;97447.81;10519197;28;20098;-53
2022/10/05 08:59:52;;;;;;;14.40;5.45;;;;;;;19.83;59.84;97443.19;10504044;28;20040;-52
2022/10/05 09:05:36;;;;;;;12.30;4.95;;;;;;;19.84;59.89;97446.72;10520743;28;20052;-51
2022/10/05 09:11:15;;;;;;;13.13;5.38;;;;;;;19.85;60.01;97454.50;10515619;28;20049;-54
2022/10/05 09:16:54;;;;;;;10.88;4.85;;;;;;;19.84;59.95;97458.31;10522912;28;20040;-53
2022/10/05 09:22:37;;;;;;;10.55;4.85;;;;;;;19.85;59.95;97468.00;10515580;28;20052;-52
2022/10/05 09:28:17;;;;;;;11.32;4.95;;;;;;;19.84;60.19;97466.44;10509407;28;20163;-52
2022/10/05 09:33:55;;;;;;;11.23;5.32;;;;;;;19.85;60.45;97469.94;10490021;28;20056;-53
2022/10/05 09:39:29;;;;;;;9.82;4.30;;;;;;;19.87;60.66;97479.31;10511559;28;20055;-52
2022/10/05 09:45:21;;;;;;;10.35;4.70;;;;;;;19.87;60.78;97463.09;10503736;28;20056;-53
2022/10/05 09:51:15;;;;;;;9.80;4.20;;;;;;;19.87;60.87;97457.69;10469541;28;20053;-52
2022/10/05 09:56:50;;;;;;;9.48;4.10;;;;;;;19.88;60.81;97448.47;10506157;28;20109;-53
2022/10/05 10:02:20;;;;;;;9.57;4.35;;;;;;;19.87;61.05;97449.56;10507719;28;20048;-53
2022/10/05 10:08:04;;;;;;;8.52;4.10;;;;;;;19.88;61.20;97459.28;10507779;28;20454;-53
2022/10/05 10:13:44;;;;;;;6.45;3.65;;;;;;;19.88;61.31;97453.88;10508273;28;20049;-53
2022/10/05 10:19:03;;;;;;;9.07;4.20;;;;;;;19.89;61.39;97444.66;10522846;28;20487;-53
2022/10/05 10:24:54;;;;;;;8.13;4.05;;;;;;;19.90;61.58;97446.25;10503936;28;20495;-53
2022/10/05 10:30:15;;;;;;;11.85;4.20;;;;;;;19.90;61.65;97445.47;10500142;28;20048;-52
2022/10/05 10:36:13;;;;;;;7.47;3.88;;;;;;;19.91;61.70;97436.22;10505780;28;20526;-52
2022/10/05 10:42:06;;;;;;;22.23;7.25;;;;;;;19.90;62.11;97421.91;10492282;28;20056;-53
2022/10/05 10:47:47;;;;;;;16.85;7.28;;;;;;;19.92;62.84;97411.59;10507786;28;20496;-53
2022/10/05 10:53:34;;;;;;;21.48;9.68;;;;;;;19.94;63.27;97414.00;10506994;28;20063;-54
2022/10/05 10:58:59;;;;;;;20.55;8.98;;;;;;;19.93;64.06;97405.09;10509354;28;20052;-53
2022/10/05 11:04:37;;;;;;;20.85;9.25;;;;;;;19.95;64.93;97397.47;10502100;28;20060;-53
2022/10/05 11:10:19;;;;;;;18.48;8.23;;;;;;;19.97;65.76;97397.13;10506288;28;20052;-53
2022/10/05 11:15:44;;;;;;;20.65;8.48;;;;;;;19.98;65.63;97376.31;10516334;28;20045;-53
2022/10/05 11:21:24;;;;;;;17.85;7.38;;;;;;;20.00;65.82;97384.91;10503831;28;20055;-53
2022/10/05 11:26:53;;;;;;;17.90;7.30;;;;;;;20.00;65.54;97374.09;10512436;28;20040;-53
2022/10/05 11:32:19;;;;;;;15.38;6.95;;;;;;;19.98;65.45;97366.28;10509343;28;20414;-54
2022/10/05 11:37:45;;;;;;;17.10;6.68;;;;;;;19.99;65.35;97357.03;10508078;28;20135;-55
2022/10/05 11:43:38;;;;;;;13.95;6.68;;;;;;;19.99;65.34;97350.84;10508484;28;20503;-53
2022/10/05 11:49:13;;;;;;;16.55;6.22;;;;;;;19.98;65.07;97333.81;10504352;28;20078;-53
2022/10/05 11:54:57;;;;;;;12.23;6.00;;;;;;;19.99;65.01;97330.00;10543814;28;20040;-53
2022/10/05 12:00:21;;;;;;;12.77;5.95;;;;;;;19.99;64.87;97332.69;10515117;28;20055;-53
2022/10/05 12:05:47;;;;;;;11.43;5.18;;;;;;;20.00;64.63;97325.41;10511568;28;20094;-52
2022/10/05 12:11:13;;;;;;;15.02;5.85;;;;;;;19.99;64.58;97324.59;10526667;28;20462;-52
2022/10/05 12:16:40;;;;;;;12.18;5.75;;;;;;;20.00;64.34;97311.88;10528159;28;20063;-52
2022/10/05 12:22:09;;;;;;;11.98;5.35;;;;;;;19.99;64.23;97308.38;10517603;28;20166;-53
2022/10/05 12:27:40;;;;;;;9.63;4.85;;;;;;;20.00;64.14;97304.56;10506921;28;20060;-52
2022/10/05 12:33:05;;;;;;;9.27;4.63;;;;;;;20.00;64.15;97303.78;10503905;28;20055;-52
2022/10/05 12:38:29;;;;;;;8.90;4.65;;;;;;;20.00;63.94;97301.06;10522602;28;20075;-52
2022/10/05 12:44:11;;;;;;;9.75;4.78;;;;;;;19.99;63.83;97296.75;10485982;28;20048;-53
2022/10/05 12:49:55;;;;;;;9.77;5.22;;;;;;;19.99;63.81;97297.53;10506811;28;20052;-52
2022/10/05 12:55:53;;;;;;;9.48;4.50;;;;;;;20.00;63.65;97298.38;10519198;28;20044;-53
2022/10/05 13:01:49;;;;;;;8.43;4.57;;;;;;;20.00;63.68;97303.78;10516108;28;20473;-52
2022/10/05 13:07:29;;;;;;;11.65;4.85;;;;;;;20.00;63.65;97292.97;10487843;28;20053;-52
2022/10/05 13:12:55;;;;;;;9.95;4.50;;;;;;;20.00;63.57;97298.38;10512601;28;20051;-52
2022/10/05 13:18:53;;;;;;;8.15;4.18;;;;;;;20.00;63.53;97295.66;10531120;28;20056;-52
2022/10/05 13:24:45;;;;;;;7.77;4.10;;;;;;;19.99;63.47;97291.34;10522686;28;20052;-53
2022/10/05 13:30:19;;;;;;;9.30;4.60;;;;;;;19.99;63.45;97299.47;10475007;28;20057;-53
2022/10/05 13:35:51;;;;;;;8.57;4.40;;;;;;;19.99;63.51;97302.16;10523621;28;20048;-52
2022/10/05 13:41:44;;;;;;;8.68;4.60;;;;;;;19.99;63.39;97299.47;10515774;28;20056;-52
2022/10/05 13:47:49;;;;;;;7.88;3.70;;;;;;;20.00;63.44;97295.66;10503693;28;20052;-53
2022/10/05 13:53:25;;;;;;;8.75;4.13;;;;;;;20.00;63.41;97298.38;10498179;28;20052;-52
2022/10/05 13:58:54;;;;;;;8.30;4.13;;;;;;;19.99;63.32;97296.75;10522845;28;20565;-52
2022/10/05 14:04:19;;;;;;;8.63;4.45;;;;;;;19.99;63.32;97286.72;10507861;28;20058;-52
2022/10/05 14:09:46;;;;;;;8.00;4.78;;;;;;;20.00;63.25;97298.38;10521748;28;20045;-52
2022/10/05 14:15:28;;;;;;;8.38;3.92;;;;;;;20.00;63.37;97292.97;10502971;28;20052;-52
2022/10/05 14:21:01;;;;;;;8.13;3.70;;;;;;;20.00;63.37;97295.66;10542666;28;20442;-53
2022/10/05 14:26:23;;;;;;;6.57;4.00;;;;;;;20.00;63.21;97292.97;10516241;28;20052;-53
2022/10/05 14:31:58;;;;;;;8.25;4.13;;;;;;;19.99;63.14;97285.94;10537820;28;20040;-53
2022/10/05 14:37:21;;;;;;;7.05;4.00;;;;;;;20.00;63.21;97284.84;10515027;28;20056;-52
2022/10/05 14:42:42;;;;;;;7.47;3.70;;;;;;;19.99;63.03;97286.72;10535475;28;20056;-52
2022/10/05 14:48:09;;;;;;;7.97;4.03;;;;;;;19.99;63.08;97288.66;10550246;28;20110;-52
2022/10/05 14:53:43;;;;;;;7.43;4.15;;;;;;;20.00;63.04;97276.72;10503481;28;20064;-53
2022/10/05 14:59:15;;;;;;;6.10;3.72;;;;;;;19.99;63.10;97291.34;10492396;28;20054;-52
2022/10/05 15:04:41;;;;;;;6.10;3.40;;;;;;;19.98;62.98;97290.56;10523621;28;20052;-52
2022/10/05 15:10:21;;;;;;;5.32;3.08;;;;;;;19.98;62.34;97289.78;10490817;28;20052;-52
2022/10/05 15:15:54;;;;;;;6.13;3.05;;;;;;;19.98;62.24;97292.47;10534433;28;20041;-50
2022/10/05 15:21:22;;;;;;;5.18;3.22;;;;;;;19.97;62.36;97285.47;10499351;28;20431;-53
2022/10/05 15:26:55;;;;;;;7.43;3.37;;;;;;;19.96;62.40;97279.25;10502951;28;20056;-53
2022/10/05 15:32:20;;;;;;;5.35;3.00;;;;;;;19.96;62.21;97284.66;10514758;28;20049;-48
2022/10/05 15:37:43;;;;;;;7.30;3.10;;;;;;;19.96;62.38;97287.38;10549635;28;20044;-48
2022/10/05 15:43:09;;;;;;;6.72;2.80;;;;;;;19.95;62.37;97281.19;10524778;28;20170;-49
2022/10/05 15:48:44;;;;;;;5.65;3.03;;;;;;;19.97;62.42;97288.16;10530350;28;20045;-50
2022/10/05 15:59:57;;;;;;;5.95;3.00;;;;;;;19.94;62.30;97284.19;10518368;28;20047;-52
2022/10/05 16:11:48;;;;;;;6.43;3.00;;;;;;;19.94;62.12;97286.91;10531233;28;20102;-51
2022/10/05 16:17:19;;;;;;;5.45;2.80;;;;;;;19.93;62.17;97291.50;10508089;28;20056;-52
2022/10/05 16:23:04;;;;;;;5.25;2.80;;;;;;;19.93;62.34;97290.69;10520207;28;20052;-48
2022/10/05 16:28:37;;;;;;;7.47;2.75;;;;;;;19.93;62.19;97294.22;10503676;28;20052;-47
2022/10/05 16:34:08;;;;;;;4.63;2.83;;;;;;;19.92;62.26;97298.03;10513841;28;20048;-50
2022/10/05 16:39:50;;;;;;;5.80;2.80;;;;;;;19.92;62.34;97289.91;10537850;28;20416;-49
2022/10/05 16:45:50;;;;;;;5.07;2.67;;;;;;;19.91;62.21;97296.41;10545152;28;20045;-49
2022/10/05 16:51:27;;;;;;;4.22;2.55;;;;;;;19.91;62.15;97299.13;10486590;28;20048;-49
2022/10/05 16:57:01;;;;;;;4.50;2.70;;;;;;;19.90;62.27;97305.66;10527106;28;20056;-48
2022/10/05 17:02:39;;;;;;;4.70;2.65;;;;;;;19.91;62.29;97306.44;10526154;28;20060;-50
2022/10/05 17:08:04;;;;;;;5.57;2.80;;;;;;;19.91;62.12;97306.44;10504759;28;20048;-49
2022/10/05 17:13:50;;;;;;;6.70;2.95;;;;;;;19.89;62.08;97308.66;10511217;28;20053;-49
2022/10/05 17:19:45;;;;;;;4.88;2.90;;;;;;;19.89;62.09;97322.97;10512212;28;20063;-49
2022/10/05 17:25:27;;;;;;;4.68;2.70;;;;;;;19.89;62.23;97322.19;10486220;28;20048;-48
2022/10/05 17:30:49;;;;;;;5.70;2.78;;;;;;;19.89;62.11;97322.19;10493665;28;20500;-49
2022/10/05 17:36:13;;;;;;;4.00;2.97;;;;;;;19.88;62.10;97324.09;10497422;28;20052;-45
2022/10/05 17:41:35;;;;;;;4.53;2.83;;;;;;;19.88;62.25;97324.09;10488139;28;20114;-50
2022/10/05 17:46:59;;;;;;;4.78;2.90;;;;;;;19.87;62.19;97325.19;10523220;28;20500;-49
2022/10/05 17:58:27;;;;;;;5.32;3.00;;;;;;;19.88;62.10;97320.59;10496076;28;20077;-53
2022/10/05 18:03:48;;;;;;;4.80;2.90;;;;;;;19.87;62.12;97327.91;10492798;28;20052;-53
2022/10/05 18:09:15;;;;;;;8.40;3.00;;;;;;;19.85;62.17;97330.13;10508056;28;20075;-49
2022/10/05 18:15:05;;;;;;;5.72;3.10;;;;;;;19.86;62.23;97334.44;10517372;28;20059;-52
2022/10/05 18:20:28;;;;;;;6.30;3.30;;;;;;;19.86;62.28;97342.53;10519718;28;20416;-52
2022/10/05 18:25:51;;;;;;;5.40;2.70;;;;;;;19.86;62.25;97341.75;10500421;28;20057;-52
2022/10/05 18:31:25;;;;;;;4.28;2.80;;;;;;;19.85;62.46;97349.03;10506936;28;20399;-52
2022/10/05 18:36:59;;;;;;;5.03;2.80;;;;;;;19.86;62.53;97352.56;10499804;28;20064;-52
2022/10/05 18:42:31;;;;;;;5.22;3.13;;;;;;;19.85;62.57;97353.66;10500763;28;20561;-51
2022/10/05 18:48:12;;;;;;;6.45;2.85;;;;;;;19.85;62.76;97356.38;10535525;28;20056;-52
2022/10/05 18:53:41;;;;;;;4.63;2.95;;;;;;;19.85;62.74;97364.47;10502725;28;20055;-51
2022/10/05 18:59:22;;;;;;;7.45;2.72;;;;;;;19.84;62.82;97357.50;10513828;28;20040;-53
2022/10/05 19:05:01;;;;;;;5.40;2.78;;;;;;;19.85;63.08;97359.06;10537729;28;20495;-51
2022/10/05 19:10:27;;;;;;;7.00;2.90;;;;;;;19.84;63.20;97360.97;10537353;28;20044;-53
2022/10/05 19:15:56;;;;;;;7.18;3.15;;;;;;;19.84;63.23;97358.28;10525184;28;21392;-53
2022/10/05 19:21:41;;;;;;;4.07;2.83;;;;;;;19.84;63.38;97360.19;10511437;28;20499;-52
2022/10/05 19:27:32;;;;;;;3.90;2.60;;;;;;;19.84;63.43;97360.19;10502936;28;20060;-53
2022/10/05 19:33:20;;;;;;;5.60;2.65;;;;;;;19.85;63.49;97361.78;10519790;28;20048;-53
2022/10/05 19:39:07;;;;;;;4.80;2.58;;;;;;;19.83;63.54;97367.47;10516782;28;20127;-53
2022/10/05 19:44:51;;;;;;;3.72;2.40;;;;;;;19.84;63.54;97374.50;10488357;28;20052;-53
2022/10/05 19:50:22;;;;;;;3.72;2.42;;;;;;;19.83;63.49;97381.00;10522531;28;20050;-53
2022/10/05 19:55:44;;;;;;;4.28;2.50;;;;;;;19.83;63.47;97386.41;10527216;28;20041;-52
2022/10/05 20:01:07;;;;;;;3.80;2.63;;;;;;;19.84;63.56;97392.63;10516132;28;20052;-54
2022/10/05 20:06:28;;;;;;;5.72;2.70;;;;;;;19.83;63.46;97391.81;10514096;28;20121;-53
2022/10/05 20:11:49;;;;;;;5.28;2.38;;;;;;;19.83;63.53;97394.53;10516833;28;20051;-53
2022/10/05 20:23:24;;;;;;;3.47;2.67;;;;;;;19.83;63.47;97405.34;10502553;28;20058;-54
2022/10/05 20:28:44;;;;;;;4.13;2.50;;;;;;;19.83;63.46;97409.94;10526959;28;20056;-53
2022/10/05 20:34:04;;;;;;;3.85;2.40;;;;;;;19.82;63.52;97414.56;10503408;28;20044;-53
2022/10/05 20:39:23;;;;;;;5.43;2.60;;;;;;;19.83;63.47;97418.06;10526638;28;20048;-52
2022/10/05 20:44:43;;;;;;;4.78;2.83;;;;;;;19.82;63.44;97421.91;10518409;28;20045;-53
2022/10/05 20:50:10;;;;;;;3.30;2.55;;;;;;;19.83;63.39;97428.88;10525585;28;20048;-54
2022/10/05 20:55:30;;;;;;;3.45;2.60;;;;;;;19.81;63.35;97426.47;10518610;28;20196;-53
2022/10/05 21:06:28;;;;;;;3.55;2.50;;;;;;;19.81;63.40;97431.88;10510047;28;20056;-53
2022/10/05 21:11:51;;;;;;;2.97;2.25;;;;;;;19.79;63.30;97431.41;10518802;28;20055;-53
2022/10/05 21:17:11;;;;;;;3.05;2.20;;;;;;;19.81;63.41;97445.41;10506678;28;20106;-53
2022/10/05 21:22:31;;;;;;;3.78;2.20;;;;;;;19.79;63.31;97439.50;10514401;28;20043;-53
2022/10/05 21:27:50;;;;;;;3.70;2.72;;;;;;;19.81;63.39;97439.22;10521956;28;20052;-54
2022/10/05 21:33:10;;;;;;;4.75;2.60;;;;;;;19.79;63.34;97447.63;10501691;28;20488;-53
2022/10/05 21:38:29;;;;;;;3.80;2.40;;;;;;;19.79;63.38;97453.03;10539134;28;20101;-55
2022/10/05 21:43:49;;;;;;;3.70;2.40;;;;;;;19.81;63.34;97458.13;10530733;28;20444;-53
2022/10/05 21:49:08;;;;;;;2.42;2.20;;;;;;;19.79;63.47;97455.72;10530137;28;20526;-53
2022/10/05 21:54:29;;;;;;;2.55;1.95;;;;;;;19.79;63.47;97457.66;10500653;28;20049;-52
2022/10/05 21:59:49;;;;;;;3.58;2.40;;;;;;;19.80;63.54;97467.34;10498879;28;20040;-52
2022/10/05 22:05:08;;;;;;;3.38;2.13;;;;;;;19.79;63.57;97465.75;10508652;28;20048;-52
2022/10/05 22:10:28;;;;;;;3.15;2.10;;;;;;;19.78;63.66;97475.78;10500197;28;20403;-52
2022/10/05 22:15:47;;;;;;;2.92;2.05;;;;;;;19.77;63.56;97468.75;10524172;28;20321;-53
2022/10/05 22:21:10;;;;;;;3.40;2.33;;;;;;;19.78;63.62;97470.38;10520247;28;20059;-52
2022/10/05 22:26:29;;;;;;;2.75;1.98;;;;;;;19.75;63.67;97474.47;10507789;28;20113;-52
2022/10/05 22:31:49;;;;;;;14.45;2.78;;;;;;;19.76;63.68;97472.59;10500221;28;20110;-51
2022/10/05 22:37:11;;;;;;;2.47;1.98;;;;;;;19.76;63.72;97469.88;10496092;28;20052;-51
2022/10/05 22:42:31;;;;;;;2.63;1.90;;;;;;;19.75;63.69;97471.78;10504321;28;20056;-53
2022/10/05 22:47:52;;;;;;;2.33;2.00;;;;;;;19.76;63.65;97478.00;10515498;28;20575;-52
2022/10/05 22:53:12;;;;;;;3.00;1.98;;;;;;;19.75;63.78;97481.78;10496098;28;20045;-52
2022/10/05 22:58:31;;;;;;;2.67;1.95;;;;;;;19.74;63.60;97480.22;10506762;28;20424;-52
2022/10/05 23:03:51;;;;;;;2.30;1.90;;;;;;;19.73;63.79;97484.00;10517858;28;20051;-52
2022/10/05 23:09:10;;;;;;;2.55;1.98;;;;;;;19.74;63.78;97485.63;10537597;28;20059;-52
2022/10/05 23:14:29;;;;;;;2.10;1.83;;;;;;;19.74;63.84;97493.72;10510227;28;20496;-52
2022/10/05 23:19:49;;;;;;;2.42;1.90;;;;;;;19.74;63.77;97501.84;10518490;28;20403;-52
2022/10/05 23:25:08;;;;;;;2.58;1.90;;;;;;;19.72;63.84;97502.13;10489965;28;20049;-51
2022/10/05 23:30:28;;;;;;;3.17;2.00;;;;;;;19.73;63.80;97505.63;10498103;28;20404;-52
2022/10/05 23:35:50;;;;;;;2.10;1.90;;;;;;;19.73;63.86;97511.03;10501337;28;20098;-53
2022/10/05 23:41:09;;;;;;;2.75;1.70;;;;;;;19.70;63.87;97507.03;10510656;28;20076;-52
2022/10/05 23:46:29;;;;;;;2.45;1.70;;;;;;;19.71;63.80;97519.44;10544455;28;20488;-53
2022/10/05 23:51:48;;;;;;;2.20;1.73;;;;;;;19.71;64.02;97521.34;10516906;28;20158;-52
2022/10/05 23:57:07;;;;;;;2.58;1.70;;;;;;;19.70;63.83;97522.47;10551776;28;20040;-52
